KFCS/FCS METAR and TAF weather

Enter ICAO airport designator
Station Type Date Time Source
KFCS METAR 2019/06/18 16:58 UTC NOAA

KFCS 181658Z AUTO 11008KT 10SM SCT025 OVC033 17/11 A3011 RMK AO2 LTG DSNT N SLP160 T01740114 $


Station Type Date Time Source
KFCS Decoded METAR 2019/06/18 16:58 UTC NOAA

Fort Carson, CO, United States (KFCS) 38-42N 104-46W 1789M
Jun 18, 2019 - 12:58 PM EDT / 2019.06.18 1658 UTC
Wind: from the ESE (110 degrees) at 9 MPH (8 KT):0
Visibility: 10 mile(s):0
Sky conditions: overcast
Weather: Lightning observed
Temperature: 63.3 F (17.4 C)
Dew Point: 52.5 F (11.4 C)
Relative Humidity: 67%
Pressure (altimeter): 30.11 in. Hg (1019 hPa)
ob: KFCS 181658Z AUTO 11008KT 10SM SCT025 OVC033 17/11 A3011 RMK AO2 LTG DSNT N SLP160 T01740114
cycle: 17

Station Type Date Time Source
KFCS TAF 2019/06/18 13:06 UTC NOAA

TAF TAF KFCS 181301Z 1813/1919 16009KT 9999 SCT050 BKN090 QNH3007INS
BECMG 1818/1819 VRB12G18KT 9999 VCTS SCT050 BKN090CB QNH3006INS
TEMPO 1821/1902 VRB20G30KT 8000 -TSRA BKN060CB
BECMG 1902/1903 18009KT 9999 -SHRA VCTS BKN030CB BKN080 QNH3009INS
BECMG 1904/1905 34009KT 9999 NSW SCT050 QNH3013INS
BECMG 1915/1916 34012G18KT 9999 FEW100 QNH3009INS TX21/1822Z TN09/1911Z

Example: see airport list